sensor_id;sensor_type;location;lat;lon;timestamp;temperature;humidity
582;DHT22;277;50.074;8.436;2023-11-19T00:00:16;7.80;99.90
582;DHT22;277;50.074;8.436;2023-11-19T00:02:44;7.80;99.90
582;DHT22;277;50.074;8.436;2023-11-19T00:05:12;7.80;99.90
582;DHT22;277;50.074;8.436;2023-11-19T00:07:40;7.80;99.90
582;DHT22;277;50.074;8.436;2023-11-19T00:10:09;7.80;99.90
582;DHT22;277;50.074;8.436;2023-11-19T00:12:37;7.80;99.90
582;DHT22;277;50.074;8.436;2023-11-19T00:15:08;7.80;99.90
582;DHT22;277;50.074;8.436;2023-11-19T00:17:38;7.90;99.90
582;DHT22;277;50.074;8.436;2023-11-19T00:20:07;7.90;99.90
582;DHT22;277;50.074;8.436;2023-11-19T00:22:36;7.90;99.90
582;DHT22;277;50.074;8.436;2023-11-19T00:25:15;7.90;99.90
582;DHT22;277;50.074;8.436;2023-11-19T00:27:43;7.90;99.90
582;DHT22;277;50.074;8.436;2023-11-19T00:30:12;7.90;99.90
582;DHT22;277;50.074;8.436;2023-11-19T00:32:41;7.90;99.90
582;DHT22;277;50.074;8.436;2023-11-19T00:35:09;7.90;99.90
582;DHT22;277;50.074;8.436;2023-11-19T00:37:37;7.90;99.90
582;DHT22;277;50.074;8.436;2023-11-19T00:40:06;8.00;99.90
582;DHT22;277;50.074;8.436;2023-11-19T00:42:37;8.00;99.90
582;DHT22;277;50.074;8.436;2023-11-19T00:45:05;8.00;99.90
582;DHT22;277;50.074;8.436;2023-11-19T00:47:36;8.00;99.90
582;DHT22;277;50.074;8.436;2023-11-19T00:50:04;8.00;99.90
582;DHT22;277;50.074;8.436;2023-11-19T00:52:32;8.10;99.90
582;DHT22;277;50.074;8.436;2023-11-19T00:55:00;8.20;99.90
582;DHT22;277;50.074;8.436;2023-11-19T00:57:28;8.20;99.90
582;DHT22;277;50.074;8.436;2023-11-19T00:59:57;8.20;99.90
582;DHT22;277;50.074;8.436;2023-11-19T01:02:25;8.20;99.90
582;DHT22;277;50.074;8.436;2023-11-19T01:04:54;8.20;99.90
582;DHT22;277;50.074;8.436;2023-11-19T01:07:23;8.20;99.90
582;DHT22;277;50.074;8.436;2023-11-19T01:09:53;8.20;99.90
582;DHT22;277;50.074;8.436;2023-11-19T01:12:20;8.20;99.90
582;DHT22;277;50.074;8.436;2023-11-19T01:14:48;8.20;99.90
582;DHT22;277;50.074;8.436;2023-11-19T01:17:16;8.20;99.90
582;DHT22;277;50.074;8.436;2023-11-19T01:19:44;8.20;99.90
582;DHT22;277;50.074;8.436;2023-11-19T01:22:13;8.20;99.90
582;DHT22;277;50.074;8.436;2023-11-19T01:24:41;8.20;99.90
582;DHT22;277;50.074;8.436;2023-11-19T01:27:08;8.20;99.90
582;DHT22;277;50.074;8.436;2023-11-19T01:29:36;8.20;99.90
582;DHT22;277;50.074;8.436;2023-11-19T01:32:04;8.20;99.90
582;DHT22;277;50.074;8.436;2023-11-19T01:34:32;8.20;99.90
582;DHT22;277;50.074;8.436;2023-11-19T01:37:00;8.20;99.90
582;DHT22;277;50.074;8.436;2023-11-19T01:39:29;8.30;99.90
582;DHT22;277;50.074;8.436;2023-11-19T01:41:57;8.30;99.90
582;DHT22;277;50.074;8.436;2023-11-19T01:44:25;8.30;99.90
582;DHT22;277;50.074;8.436;2023-11-19T01:46:53;8.30;99.90
582;DHT22;277;50.074;8.436;2023-11-19T01:49:21;8.30;99.90
582;DHT22;277;50.074;8.436;2023-11-19T01:51:48;8.30;99.90
582;DHT22;277;50.074;8.436;2023-11-19T01:54:16;8.30;99.90
582;DHT22;277;50.074;8.436;2023-11-19T01:56:46;8.30;99.90
582;DHT22;277;50.074;8.436;2023-11-19T01:59:13;8.30;99.90
582;DHT22;277;50.074;8.436;2023-11-19T02:01:41;8.30;99.90
582;DHT22;277;50.074;8.436;2023-11-19T02:04:09;8.30;99.90
582;DHT22;277;50.074;8.436;2023-11-19T02:06:39;8.40;99.90
582;DHT22;277;50.074;8.436;2023-11-19T02:09:08;8.30;99.90
582;DHT22;277;50.074;8.436;2023-11-19T02:11:36;8.40;99.90
582;DHT22;277;50.074;8.436;2023-11-19T02:14:05;8.40;99.90
582;DHT22;277;50.074;8.436;2023-11-19T02:16:33;8.40;99.90
582;DHT22;277;50.074;8.436;2023-11-19T02:19:01;8.40;99.90
582;DHT22;277;50.074;8.436;2023-11-19T02:21:30;8.40;99.90
582;DHT22;277;50.074;8.436;2023-11-19T02:23:58;8.50;99.90
582;DHT22;277;50.074;8.436;2023-11-19T02:26:28;8.50;99.90
582;DHT22;277;50.074;8.436;2023-11-19T02:29:00;8.50;99.90
582;DHT22;277;50.074;8.436;2023-11-19T02:31:33;8.40;99.90
582;DHT22;277;50.074;8.436;2023-11-19T02:34:01;8.50;99.90
582;DHT22;277;50.074;8.436;2023-11-19T02:36:29;8.50;99.90
582;DHT22;277;50.074;8.436;2023-11-19T02:38:58;8.50;99.90
582;DHT22;277;50.074;8.436;2023-11-19T02:41:26;8.50;99.90
582;DHT22;277;50.074;8.436;2023-11-19T02:43:54;8.50;99.90
582;DHT22;277;50.074;8.436;2023-11-19T02:46:23;8.50;99.90
582;DHT22;277;50.074;8.436;2023-11-19T02:48:50;8.50;99.90
582;DHT22;277;50.074;8.436;2023-11-19T02:51:18;8.50;99.90
582;DHT22;277;50.074;8.436;2023-11-19T02:53:46;8.50;99.90
582;DHT22;277;50.074;8.436;2023-11-19T02:56:15;8.50;99.90
582;DHT22;277;50.074;8.436;2023-11-19T02:58:47;8.50;99.90
582;DHT22;277;50.074;8.436;2023-11-19T03:01:22;8.50;99.90
582;DHT22;277;50.074;8.436;2023-11-19T03:03:57;8.50;99.90
582;DHT22;277;50.074;8.436;2023-11-19T03:06:26;8.60;99.90
582;DHT22;277;50.074;8.436;2023-11-19T03:08:55;8.60;99.90
582;DHT22;277;50.074;8.436;2023-11-19T03:11:23;8.60;99.90
582;DHT22;277;50.074;8.436;2023-11-19T03:13:51;8.60;99.90
582;DHT22;277;50.074;8.436;2023-11-19T03:16:19;8.60;99.90
582;DHT22;277;50.074;8.436;2023-11-19T03:18:48;8.60;99.90
582;DHT22;277;50.074;8.436;2023-11-19T03:21:16;8.70;99.90
582;DHT22;277;50.074;8.436;2023-11-19T03:23:44;8.70;99.90
582;DHT22;277;50.074;8.436;2023-11-19T03:26:11;8.70;99.90
582;DHT22;277;50.074;8.436;2023-11-19T03:28:40;8.70;99.90
582;DHT22;277;50.074;8.436;2023-11-19T03:31:07;8.70;99.90
582;DHT22;277;50.074;8.436;2023-11-19T03:33:35;8.70;99.90
582;DHT22;277;50.074;8.436;2023-11-19T03:36:06;8.80;99.90
582;DHT22;277;50.074;8.436;2023-11-19T03:38:35;8.80;99.90
582;DHT22;277;50.074;8.436;2023-11-19T03:41:09;8.80;99.90
582;DHT22;277;50.074;8.436;2023-11-19T03:43:37;8.80;99.90
582;DHT22;277;50.074;8.436;2023-11-19T03:46:05;8.80;99.90
582;DHT22;277;50.074;8.436;2023-11-19T03:48:42;8.80;99.90
582;DHT22;277;50.074;8.436;2023-11-19T03:51:11;8.90;99.90
582;DHT22;277;50.074;8.436;2023-11-19T03:53:42;8.90;99.90
582;DHT22;277;50.074;8.436;2023-11-19T03:56:09;8.90;99.90
582;DHT22;277;50.074;8.436;2023-11-19T03:58:38;9.00;99.90
582;DHT22;277;50.074;8.436;2023-11-19T04:01:05;9.00;99.90
582;DHT22;277;50.074;8.436;2023-11-19T04:03:33;9.00;99.90
582;DHT22;277;50.074;8.436;2023-11-19T04:06:01;9.00;99.90
582;DHT22;277;50.074;8.436;2023-11-19T04:08:30;9.00;99.90
582;DHT22;277;50.074;8.436;2023-11-19T04:10:58;9.00;99.90
582;DHT22;277;50.074;8.436;2023-11-19T04:13:27;9.00;99.90
582;DHT22;277;50.074;8.436;2023-11-19T04:15:55;9.00;99.90
582;DHT22;277;50.074;8.436;2023-11-19T04:18:23;9.00;99.90
582;DHT22;277;50.074;8.436;2023-11-19T04:20:51;9.00;99.90
582;DHT22;277;50.074;8.436;2023-11-19T04:23:18;9.00;99.90
582;DHT22;277;50.074;8.436;2023-11-19T04:25:48;9.00;99.90
582;DHT22;277;50.074;8.436;2023-11-19T04:28:15;9.00;99.90
582;DHT22;277;50.074;8.436;2023-11-19T04:30:44;9.10;99.90
582;DHT22;277;50.074;8.436;2023-11-19T04:33:12;9.10;99.90
582;DHT22;277;50.074;8.436;2023-11-19T04:35:40;9.10;99.90
582;DHT22;277;50.074;8.436;2023-11-19T04:38:07;9.10;99.90
582;DHT22;277;50.074;8.436;2023-11-19T04:40:35;9.10;99.90
582;DHT22;277;50.074;8.436;2023-11-19T04:43:04;9.10;99.90
582;DHT22;277;50.074;8.436;2023-11-19T04:45:33;9.10;99.90
582;DHT22;277;50.074;8.436;2023-11-19T04:48:01;9.10;99.90
582;DHT22;277;50.074;8.436;2023-11-19T04:50:29;9.10;99.90
582;DHT22;277;50.074;8.436;2023-11-19T04:52:57;9.20;99.90
582;DHT22;277;50.074;8.436;2023-11-19T04:55:26;9.20;99.90
582;DHT22;277;50.074;8.436;2023-11-19T04:57:54;9.20;99.90
582;DHT22;277;50.074;8.436;2023-11-19T05:00:23;9.30;99.90
582;DHT22;277;50.074;8.436;2023-11-19T05:02:52;9.40;99.90
582;DHT22;277;50.074;8.436;2023-11-19T05:05:20;9.30;99.90
582;DHT22;277;50.074;8.436;2023-11-19T05:07:48;9.30;99.90
582;DHT22;277;50.074;8.436;2023-11-19T05:10:15;9.40;99.90
582;DHT22;277;50.074;8.436;2023-11-19T05:12:43;9.40;99.90
582;DHT22;277;50.074;8.436;2023-11-19T05:15:11;9.40;99.90
582;DHT22;277;50.074;8.436;2023-11-19T05:17:40;9.40;99.90
582;DHT22;277;50.074;8.436;2023-11-19T05:20:08;9.40;99.90
582;DHT22;277;50.074;8.436;2023-11-19T05:22:40;9.50;99.90
582;DHT22;277;50.074;8.436;2023-11-19T05:25:08;9.70;99.90
582;DHT22;277;50.074;8.436;2023-11-19T05:27:37;9.70;99.90
582;DHT22;277;50.074;8.436;2023-11-19T05:30:05;9.60;99.90
582;DHT22;277;50.074;8.436;2023-11-19T05:32:34;9.70;99.90
582;DHT22;277;50.074;8.436;2023-11-19T05:35:04;9.70;99.90
582;DHT22;277;50.074;8.436;2023-11-19T05:37:32;9.70;99.90
582;DHT22;277;50.074;8.436;2023-11-19T05:40:01;9.70;99.90
582;DHT22;277;50.074;8.436;2023-11-19T05:42:31;9.60;99.90
582;DHT22;277;50.074;8.436;2023-11-19T05:44:58;9.50;99.90
582;DHT22;277;50.074;8.436;2023-11-19T05:47:26;9.50;99.90
582;DHT22;277;50.074;8.436;2023-11-19T05:49:54;9.40;99.90
582;DHT22;277;50.074;8.436;2023-11-19T05:52:23;9.50;99.90
582;DHT22;277;50.074;8.436;2023-11-19T05:54:51;9.60;99.90
582;DHT22;277;50.074;8.436;2023-11-19T05:57:19;9.60;99.90
582;DHT22;277;50.074;8.436;2023-11-19T05:59:50;9.50;99.90
582;DHT22;277;50.074;8.436;2023-11-19T06:02:18;9.50;99.90
582;DHT22;277;50.074;8.436;2023-11-19T06:04:45;9.60;99.90
582;DHT22;277;50.074;8.436;2023-11-19T06:07:14;9.60;99.90
582;DHT22;277;50.074;8.436;2023-11-19T06:09:44;9.70;99.90
582;DHT22;277;50.074;8.436;2023-11-19T06:12:12;9.70;99.90
582;DHT22;277;50.074;8.436;2023-11-19T06:14:40;9.90;99.90
582;DHT22;277;50.074;8.436;2023-11-19T06:17:08;10.00;99.90
582;DHT22;277;50.074;8.436;2023-11-19T06:19:37;10.10;99.90
582;DHT22;277;50.074;8.436;2023-11-19T06:22:05;10.20;99.90
582;DHT22;277;50.074;8.436;2023-11-19T06:24:33;10.30;99.90
582;DHT22;277;50.074;8.436;2023-11-19T06:27:05;10.30;99.90
582;DHT22;277;50.074;8.436;2023-11-19T06:29:33;10.40;99.90
582;DHT22;277;50.074;8.436;2023-11-19T06:32:01;10.40;99.90
582;DHT22;277;50.074;8.436;2023-11-19T06:34:41;10.40;99.90
582;DHT22;277;50.074;8.436;2023-11-19T06:37:09;10.30;99.90
582;DHT22;277;50.074;8.436;2023-11-19T06:39:37;10.40;99.90
582;DHT22;277;50.074;8.436;2023-11-19T06:42:06;10.40;99.90
582;DHT22;277;50.074;8.436;2023-11-19T06:44:34;10.30;99.90
582;DHT22;277;50.074;8.436;2023-11-19T06:47:02;10.40;99.90
582;DHT22;277;50.074;8.436;2023-11-19T06:49:30;10.40;99.90
582;DHT22;277;50.074;8.436;2023-11-19T06:51:58;10.40;99.90
582;DHT22;277;50.074;8.436;2023-11-19T06:54:26;10.40;99.90
582;DHT22;277;50.074;8.436;2023-11-19T06:56:53;10.50;99.90
582;DHT22;277;50.074;8.436;2023-11-19T07:03:10;10.60;99.90
582;DHT22;277;50.074;8.436;2023-11-19T07:05:38;10.50;99.90
582;DHT22;277;50.074;8.436;2023-11-19T07:08:06;10.60;99.90
582;DHT22;277;50.074;8.436;2023-11-19T07:10:34;10.60;99.90
582;DHT22;277;50.074;8.436;2023-11-19T07:13:02;10.70;99.90
582;DHT22;277;50.074;8.436;2023-11-19T07:15:32;10.80;99.90
582;DHT22;277;50.074;8.436;2023-11-19T07:18:00;10.80;99.90
582;DHT22;277;50.074;8.436;2023-11-19T07:20:30;10.80;99.90
582;DHT22;277;50.074;8.436;2023-11-19T07:22:59;10.90;99.90
582;DHT22;277;50.074;8.436;2023-11-19T07:25:27;11.00;99.90
582;DHT22;277;50.074;8.436;2023-11-19T07:27:55;11.00;99.90
582;DHT22;277;50.074;8.436;2023-11-19T07:30:22;11.00;99.90
582;DHT22;277;50.074;8.436;2023-11-19T07:32:50;11.10;99.90
582;DHT22;277;50.074;8.436;2023-11-19T07:35:18;11.10;99.90
582;DHT22;277;50.074;8.436;2023-11-19T07:37:48;11.10;99.90
582;DHT22;277;50.074;8.436;2023-11-19T07:40:16;11.20;99.90
582;DHT22;277;50.074;8.436;2023-11-19T07:42:45;11.20;99.90
582;DHT22;277;50.074;8.436;2023-11-19T07:45:13;11.20;99.90
582;DHT22;277;50.074;8.436;2023-11-19T07:47:41;11.20;99.90
582;DHT22;277;50.074;8.436;2023-11-19T07:50:09;11.30;99.90
582;DHT22;277;50.074;8.436;2023-11-19T07:52:37;11.40;99.90
582;DHT22;277;50.074;8.436;2023-11-19T07:55:06;11.30;99.90
582;DHT22;277;50.074;8.436;2023-11-19T07:57:35;11.20;99.90
582;DHT22;277;50.074;8.436;2023-11-19T08:00:03;11.40;99.90
582;DHT22;277;50.074;8.436;2023-11-19T08:02:31;11.60;99.90
582;DHT22;277;50.074;8.436;2023-11-19T08:04:59;11.60;99.90
582;DHT22;277;50.074;8.436;2023-11-19T08:07:27;11.80;99.90
582;DHT22;277;50.074;8.436;2023-11-19T08:09:55;11.90;99.90
582;DHT22;277;50.074;8.436;2023-11-19T08:12:24;11.90;99.90
582;DHT22;277;50.074;8.436;2023-11-19T08:14:52;12.00;99.90
582;DHT22;277;50.074;8.436;2023-11-19T08:17:20;11.90;99.90
582;DHT22;277;50.074;8.436;2023-11-19T08:19:49;12.00;99.90
582;DHT22;277;50.074;8.436;2023-11-19T08:22:17;12.10;99.90
582;DHT22;277;50.074;8.436;2023-11-19T08:24:45;12.30;99.90
582;DHT22;277;50.074;8.436;2023-11-19T08:27:13;12.40;99.90
582;DHT22;277;50.074;8.436;2023-11-19T08:29:42;12.40;99.90
582;DHT22;277;50.074;8.436;2023-11-19T08:32:10;12.30;99.90
582;DHT22;277;50.074;8.436;2023-11-19T08:34:37;12.30;99.90
582;DHT22;277;50.074;8.436;2023-11-19T08:37:05;12.10;99.90
582;DHT22;277;50.074;8.436;2023-11-19T08:39:33;12.00;99.90
582;DHT22;277;50.074;8.436;2023-11-19T08:42:01;12.20;99.90
582;DHT22;277;50.074;8.436;2023-11-19T08:44:29;12.10;99.90
582;DHT22;277;50.074;8.436;2023-11-19T08:46:58;12.20;99.90
582;DHT22;277;50.074;8.436;2023-11-19T08:49:27;12.20;99.90
582;DHT22;277;50.074;8.436;2023-11-19T08:51:55;12.20;99.90
582;DHT22;277;50.074;8.436;2023-11-19T08:54:22;12.30;99.90
582;DHT22;277;50.074;8.436;2023-11-19T08:56:50;12.50;99.90
582;DHT22;277;50.074;8.436;2023-11-19T08:59:18;12.50;99.90
582;DHT22;277;50.074;8.436;2023-11-19T09:01:46;12.50;99.90
582;DHT22;277;50.074;8.436;2023-11-19T09:04:15;12.50;99.90
582;DHT22;277;50.074;8.436;2023-11-19T09:06:43;12.50;99.90
582;DHT22;277;50.074;8.436;2023-11-19T09:09:11;12.70;99.90
582;DHT22;277;50.074;8.436;2023-11-19T09:11:39;13.10;99.90
582;DHT22;277;50.074;8.436;2023-11-19T09:14:07;13.70;99.90
582;DHT22;277;50.074;8.436;2023-11-19T09:16:34;14.20;99.90
582;DHT22;277;50.074;8.436;2023-11-19T09:19:02;14.80;99.90
582;DHT22;277;50.074;8.436;2023-11-19T09:21:34;15.00;99.90
582;DHT22;277;50.074;8.436;2023-11-19T09:24:05;15.50;99.90
582;DHT22;277;50.074;8.436;2023-11-19T09:26:34;15.70;99.90
582;DHT22;277;50.074;8.436;2023-11-19T09:29:02;15.80;99.90
582;DHT22;277;50.074;8.436;2023-11-19T09:31:30;15.90;99.90
582;DHT22;277;50.074;8.436;2023-11-19T09:33:58;16.10;99.90
582;DHT22;277;50.074;8.436;2023-11-19T09:36:26;16.10;99.90
582;DHT22;277;50.074;8.436;2023-11-19T09:38:55;16.30;99.90
582;DHT22;277;50.074;8.436;2023-11-19T09:41:23;16.60;99.90
582;DHT22;277;50.074;8.436;2023-11-19T09:43:52;17.00;99.90
582;DHT22;277;50.074;8.436;2023-11-19T09:46:19;17.10;99.90
582;DHT22;277;50.074;8.436;2023-11-19T09:48:51;17.20;99.90
582;DHT22;277;50.074;8.436;2023-11-19T09:51:21;17.20;99.90
582;DHT22;277;50.074;8.436;2023-11-19T09:53:49;17.50;99.90
582;DHT22;277;50.074;8.436;2023-11-19T09:56:19;17.50;99.90
582;DHT22;277;50.074;8.436;2023-11-19T09:58:47;17.70;99.90
582;DHT22;277;50.074;8.436;2023-11-19T10:01:14;17.40;99.90
582;DHT22;277;50.074;8.436;2023-11-19T10:03:46;17.30;99.90
582;DHT22;277;50.074;8.436;2023-11-19T10:06:15;17.10;99.90
582;DHT22;277;50.074;8.436;2023-11-19T10:08:44;16.90;99.90
582;DHT22;277;50.074;8.436;2023-11-19T10:11:12;17.10;99.90
582;DHT22;277;50.074;8.436;2023-11-19T10:13:41;16.90;99.90
582;DHT22;277;50.074;8.436;2023-11-19T10:16:10;16.80;99.90
582;DHT22;277;50.074;8.436;2023-11-19T10:18:42;17.00;99.90
582;DHT22;277;50.074;8.436;2023-11-19T10:21:10;17.00;99.90
582;DHT22;277;50.074;8.436;2023-11-19T10:23:49;17.10;99.90
582;DHT22;277;50.074;8.436;2023-11-19T10:26:18;17.10;99.90
582;DHT22;277;50.074;8.436;2023-11-19T10:28:48;17.00;99.90
582;DHT22;277;50.074;8.436;2023-11-19T10:31:16;16.90;99.90
582;DHT22;277;50.074;8.436;2023-11-19T10:33:44;16.90;99.90
582;DHT22;277;50.074;8.436;2023-11-19T10:36:13;16.90;99.90
582;DHT22;277;50.074;8.436;2023-11-19T10:38:41;17.00;99.90
582;DHT22;277;50.074;8.436;2023-11-19T10:41:26;16.80;99.90
582;DHT22;277;50.074;8.436;2023-11-19T10:43:55;16.40;99.90
582;DHT22;277;50.074;8.436;2023-11-19T10:46:23;16.10;99.90
582;DHT22;277;50.074;8.436;2023-11-19T10:49:03;16.10;99.90
582;DHT22;277;50.074;8.436;2023-11-19T10:51:33;16.10;99.90
582;DHT22;277;50.074;8.436;2023-11-19T10:54:02;16.30;99.90
582;DHT22;277;50.074;8.436;2023-11-19T10:56:30;16.30;99.90
582;DHT22;277;50.074;8.436;2023-11-19T10:59:00;16.50;99.90
582;DHT22;277;50.074;8.436;2023-11-19T11:01:32;16.60;99.90
582;DHT22;277;50.074;8.436;2023-11-19T11:04:01;16.80;99.90
582;DHT22;277;50.074;8.436;2023-11-19T11:06:29;16.90;99.90
582;DHT22;277;50.074;8.436;2023-11-19T11:08:57;16.60;99.90
582;DHT22;277;50.074;8.436;2023-11-19T11:11:25;16.30;99.90
582;DHT22;277;50.074;8.436;2023-11-19T11:13:53;15.90;99.90
582;DHT22;277;50.074;8.436;2023-11-19T11:16:23;15.60;99.90
582;DHT22;277;50.074;8.436;2023-11-19T11:18:52;15.30;99.90
582;DHT22;277;50.074;8.436;2023-11-19T11:21:20;15.10;99.90
582;DHT22;277;50.074;8.436;2023-11-19T11:23:59;15.10;99.90
582;DHT22;277;50.074;8.436;2023-11-19T11:26:39;15.20;99.90
582;DHT22;277;50.074;8.436;2023-11-19T11:29:10;15.40;99.90
582;DHT22;277;50.074;8.436;2023-11-19T11:31:43;15.30;99.90
582;DHT22;277;50.074;8.436;2023-11-19T11:34:23;15.00;99.90
582;DHT22;277;50.074;8.436;2023-11-19T11:36:58;14.90;99.90
582;DHT22;277;50.074;8.436;2023-11-19T11:39:30;14.90;99.90
582;DHT22;277;50.074;8.436;2023-11-19T11:45:00;15.50;99.90
582;DHT22;277;50.074;8.436;2023-11-19T11:50:18;15.90;99.90
582;DHT22;277;50.074;8.436;2023-11-19T11:55:34;15.70;99.90
582;DHT22;277;50.074;8.436;2023-11-19T11:58:03;16.00;99.90
582;DHT22;277;50.074;8.436;2023-11-19T12:00:32;16.40;99.90
582;DHT22;277;50.074;8.436;2023-11-19T12:03:00;16.60;99.90
582;DHT22;277;50.074;8.436;2023-11-19T12:05:30;16.80;99.90
582;DHT22;277;50.074;8.436;2023-11-19T12:08:00;16.60;99.90
582;DHT22;277;50.074;8.436;2023-11-19T12:10:29;16.40;99.90
582;DHT22;277;50.074;8.436;2023-11-19T12:12:58;16.10;99.90
582;DHT22;277;50.074;8.436;2023-11-19T12:15:27;15.80;99.90
582;DHT22;277;50.074;8.436;2023-11-19T12:17:55;15.70;99.90
582;DHT22;277;50.074;8.436;2023-11-19T12:20:23;15.60;99.90
582;DHT22;277;50.074;8.436;2023-11-19T12:22:55;15.30;99.90
582;DHT22;277;50.074;8.436;2023-11-19T12:25:24;15.00;99.90
582;DHT22;277;50.074;8.436;2023-11-19T12:27:52;14.80;99.90
582;DHT22;277;50.074;8.436;2023-11-19T12:30:21;14.60;99.90
582;DHT22;277;50.074;8.436;2023-11-19T12:32:49;14.50;99.90
582;DHT22;277;50.074;8.436;2023-11-19T12:35:17;14.50;99.90
582;DHT22;277;50.074;8.436;2023-11-19T12:37:45;14.50;99.90
582;DHT22;277;50.074;8.436;2023-11-19T12:40:17;14.60;99.90
582;DHT22;277;50.074;8.436;2023-11-19T12:42:46;14.70;99.90
582;DHT22;277;50.074;8.436;2023-11-19T12:45:14;14.70;99.90
582;DHT22;277;50.074;8.436;2023-11-19T12:47:43;14.70;99.90
582;DHT22;277;50.074;8.436;2023-11-19T12:50:11;14.70;99.90
582;DHT22;277;50.074;8.436;2023-11-19T12:52:39;14.60;99.90
582;DHT22;277;50.074;8.436;2023-11-19T12:57:54;14.50;99.90
582;DHT22;277;50.074;8.436;2023-11-19T13:00:22;14.50;99.90
582;DHT22;277;50.074;8.436;2023-11-19T13:02:51;14.40;99.90
582;DHT22;277;50.074;8.436;2023-11-19T13:05:20;14.30;99.90
582;DHT22;277;50.074;8.436;2023-11-19T13:07:48;14.30;99.90
582;DHT22;277;50.074;8.436;2023-11-19T13:10:16;14.30;99.90
582;DHT22;277;50.074;8.436;2023-11-19T13:13:00;14.30;99.90
582;DHT22;277;50.074;8.436;2023-11-19T13:15:28;14.30;99.90
582;DHT22;277;50.074;8.436;2023-11-19T13:17:56;14.30;99.90
582;DHT22;277;50.074;8.436;2023-11-19T13:20:23;14.20;99.90
582;DHT22;277;50.074;8.436;2023-11-19T13:22:56;14.20;99.90
582;DHT22;277;50.074;8.436;2023-11-19T13:25:24;14.20;99.90
582;DHT22;277;50.074;8.436;2023-11-19T13:27:52;14.20;99.90
582;DHT22;277;50.074;8.436;2023-11-19T13:30:21;14.30;99.90
582;DHT22;277;50.074;8.436;2023-11-19T13:32:52;14.30;99.90
582;DHT22;277;50.074;8.436;2023-11-19T13:35:22;14.30;99.90
582;DHT22;277;50.074;8.436;2023-11-19T13:37:50;14.30;99.90
582;DHT22;277;50.074;8.436;2023-11-19T13:40:18;14.40;99.90
582;DHT22;277;50.074;8.436;2023-11-19T13:42:46;14.40;99.90
582;DHT22;277;50.074;8.436;2023-11-19T13:45:14;14.30;99.90
582;DHT22;277;50.074;8.436;2023-11-19T13:47:45;14.30;99.90
582;DHT22;277;50.074;8.436;2023-11-19T13:50:14;14.30;99.90
582;DHT22;277;50.074;8.436;2023-11-19T13:52:42;14.30;99.90
582;DHT22;277;50.074;8.436;2023-11-19T13:55:12;14.30;99.90
582;DHT22;277;50.074;8.436;2023-11-19T13:57:40;14.20;99.90
582;DHT22;277;50.074;8.436;2023-11-19T14:00:09;14.20;99.90
582;DHT22;277;50.074;8.436;2023-11-19T14:02:39;14.20;99.90
582;DHT22;277;50.074;8.436;2023-11-19T14:05:09;14.20;99.90
582;DHT22;277;50.074;8.436;2023-11-19T14:07:37;14.20;99.90
582;DHT22;277;50.074;8.436;2023-11-19T14:10:06;14.20;99.90
582;DHT22;277;50.074;8.436;2023-11-19T14:12:36;14.20;99.90
582;DHT22;277;50.074;8.436;2023-11-19T14:15:04;14.10;99.90
582;DHT22;277;50.074;8.436;2023-11-19T14:17:33;14.10;99.90
582;DHT22;277;50.074;8.436;2023-11-19T14:20:01;14.10;99.90
582;DHT22;277;50.074;8.436;2023-11-19T14:22:32;14.10;99.90
582;DHT22;277;50.074;8.436;2023-11-19T14:25:00;14.10;99.90
582;DHT22;277;50.074;8.436;2023-11-19T14:27:27;14.00;99.90
582;DHT22;277;50.074;8.436;2023-11-19T14:29:55;14.00;99.90
582;DHT22;277;50.074;8.436;2023-11-19T14:32:22;13.90;99.90
582;DHT22;277;50.074;8.436;2023-11-19T14:34:50;13.90;99.90
582;DHT22;277;50.074;8.436;2023-11-19T14:37:18;13.90;99.90
582;DHT22;277;50.074;8.436;2023-11-19T14:39:47;13.80;99.90
582;DHT22;277;50.074;8.436;2023-11-19T14:42:17;13.70;99.90
582;DHT22;277;50.074;8.436;2023-11-19T14:44:45;13.80;99.90
582;DHT22;277;50.074;8.436;2023-11-19T14:47:13;13.70;99.90
582;DHT22;277;50.074;8.436;2023-11-19T14:49:41;13.80;99.90
582;DHT22;277;50.074;8.436;2023-11-19T14:52:10;13.80;99.90
582;DHT22;277;50.074;8.436;2023-11-19T14:54:40;13.80;99.90
582;DHT22;277;50.074;8.436;2023-11-19T14:57:09;13.80;99.90
582;DHT22;277;50.074;8.436;2023-11-19T14:59:37;13.80;99.90
582;DHT22;277;50.074;8.436;2023-11-19T15:02:05;13.70;99.90
582;DHT22;277;50.074;8.436;2023-11-19T15:04:33;13.70;99.90
582;DHT22;277;50.074;8.436;2023-11-19T15:07:01;13.60;99.90
582;DHT22;277;50.074;8.436;2023-11-19T15:09:29;13.50;99.90
582;DHT22;277;50.074;8.436;2023-11-19T15:11:57;13.50;99.90
582;DHT22;277;50.074;8.436;2023-11-19T15:14:27;13.40;99.90
582;DHT22;277;50.074;8.436;2023-11-19T15:16:55;13.30;99.90
582;DHT22;277;50.074;8.436;2023-11-19T15:19:24;13.30;99.90
582;DHT22;277;50.074;8.436;2023-11-19T15:21:52;13.20;99.90
582;DHT22;277;50.074;8.436;2023-11-19T15:24:21;13.10;99.90
582;DHT22;277;50.074;8.436;2023-11-19T15:26:49;13.00;99.90
582;DHT22;277;50.074;8.436;2023-11-19T15:29:17;13.00;99.90
582;DHT22;277;50.074;8.436;2023-11-19T15:31:46;12.90;99.90
582;DHT22;277;50.074;8.436;2023-11-19T15:34:14;12.90;99.90
582;DHT22;277;50.074;8.436;2023-11-19T15:36:42;12.90;99.90
582;DHT22;277;50.074;8.436;2023-11-19T15:39:09;12.80;99.90
582;DHT22;277;50.074;8.436;2023-11-19T15:41:39;12.70;99.90
582;DHT22;277;50.074;8.436;2023-11-19T15:44:07;12.70;99.90
582;DHT22;277;50.074;8.436;2023-11-19T15:46:35;12.60;99.90
582;DHT22;277;50.074;8.436;2023-11-19T15:49:04;12.60;99.90
582;DHT22;277;50.074;8.436;2023-11-19T15:51:33;12.50;99.90
582;DHT22;277;50.074;8.436;2023-11-19T15:54:00;12.50;99.90
582;DHT22;277;50.074;8.436;2023-11-19T15:56:28;12.50;99.90
582;DHT22;277;50.074;8.436;2023-11-19T15:58:57;12.40;99.90
582;DHT22;277;50.074;8.436;2023-11-19T16:01:25;12.40;99.90
582;DHT22;277;50.074;8.436;2023-11-19T16:03:54;12.40;99.90
582;DHT22;277;50.074;8.436;2023-11-19T16:06:24;12.30;99.90
582;DHT22;277;50.074;8.436;2023-11-19T16:08:51;12.30;99.90
582;DHT22;277;50.074;8.436;2023-11-19T16:11:20;12.20;99.90
582;DHT22;277;50.074;8.436;2023-11-19T16:13:48;12.20;99.90
582;DHT22;277;50.074;8.436;2023-11-19T16:16:16;12.20;99.90
582;DHT22;277;50.074;8.436;2023-11-19T16:18:44;12.10;99.90
582;DHT22;277;50.074;8.436;2023-11-19T16:21:11;12.10;99.90
582;DHT22;277;50.074;8.436;2023-11-19T16:23:40;12.00;99.90
582;DHT22;277;50.074;8.436;2023-11-19T16:26:08;12.00;99.90
582;DHT22;277;50.074;8.436;2023-11-19T16:28:36;11.90;99.90
582;DHT22;277;50.074;8.436;2023-11-19T16:31:04;11.90;99.90
582;DHT22;277;50.074;8.436;2023-11-19T16:33:33;11.80;99.90
582;DHT22;277;50.074;8.436;2023-11-19T16:36:02;11.80;99.90
582;DHT22;277;50.074;8.436;2023-11-19T16:38:30;11.80;99.90
582;DHT22;277;50.074;8.436;2023-11-19T16:40:59;11.70;99.90
582;DHT22;277;50.074;8.436;2023-11-19T16:43:27;11.70;99.90
582;DHT22;277;50.074;8.436;2023-11-19T16:45:55;11.60;99.90
582;DHT22;277;50.074;8.436;2023-11-19T16:48:23;11.60;99.90
582;DHT22;277;50.074;8.436;2023-11-19T16:50:51;11.60;99.90
582;DHT22;277;50.074;8.436;2023-11-19T16:53:22;11.60;99.90
582;DHT22;277;50.074;8.436;2023-11-19T16:55:50;11.70;99.90
582;DHT22;277;50.074;8.436;2023-11-19T16:58:19;11.70;99.90
582;DHT22;277;50.074;8.436;2023-11-19T17:00:49;11.70;99.90
582;DHT22;277;50.074;8.436;2023-11-19T17:03:17;11.70;99.90
582;DHT22;277;50.074;8.436;2023-11-19T17:05:45;11.70;99.90